Time;durP1;ratioP1;P1;durP2;ratioP2;P2;SDS_P1;SDS_P2;PMS_P1;PMS_P2;Temp;Humidity;BMP_temperature;BMP_pressure;BME280_temperature;BME280_humidity;BME280_pressure;Samples;Min_cycle;Max_cycle;Signal;HPM_P1;HPM_P2
2023/01/17 00:00:29;;;;;;;0.10;0.10;;;;;;;4.43;72.84;98536.69;5045430;28;20029;-79
2023/01/17 00:02:56;;;;;;;0.10;0.10;;;;;;;4.37;72.99;98537.75;5049443;28;20025;-79
2023/01/17 00:10:57;;;;;;;0.20;0.20;;;;;;;4.40;73.33;98544.66;5049619;28;20556;-78
2023/01/17 00:13:24;;;;;;;0.20;0.20;;;;;;;4.40;73.19;98540.28;5042766;28;20021;-78
2023/01/17 00:15:50;;;;;;;0.17;0.17;;;;;;;4.34;73.36;98538.69;5049505;28;20045;-78
2023/01/17 00:18:16;;;;;;;0.17;0.17;;;;;;;4.31;73.48;98540.56;5050440;28;20028;-77
2023/01/17 00:26:18;;;;;;;0.20;0.20;;;;;;;4.18;73.22;98555.81;5033879;28;20096;-78
2023/01/17 01:33:40;;;;;;;0.10;0.10;;;;;;;4.19;72.47;98655.38;5033100;28;20041;-77
2023/01/17 01:36:07;;;;;;;0.10;0.10;;;;;;;4.07;72.70;98650.47;5031858;28;20040;-78
2023/01/17 01:38:34;;;;;;;0.20;0.20;;;;;;;4.11;72.33;98664.34;5035799;28;20037;-78
2023/01/17 01:41:00;;;;;;;0.10;0.10;;;;;;;4.00;72.71;98649.81;5035174;28;20033;-78
2023/01/17 01:46:25;;;;;;;0.10;0.10;;;;;;;4.00;72.29;98636.72;5071135;28;20386;-78
2023/01/17 01:49:16;;;;;;;0.10;0.10;;;;;;;4.02;72.05;98631.41;5045288;28;20603;-77
2023/01/17 01:51:48;;;;;;;0.10;0.10;;;;;;;3.99;72.02;98632.38;5054412;28;20033;-78
2023/01/17 01:54:20;;;;;;;15.70;2.17;;;;;;;3.96;71.85;98635.09;5049532;28;20021;-78
2023/01/17 01:56:48;;;;;;;0.10;0.10;;;;;;;3.88;71.81;98637.91;5047475;28;20150;-78
2023/01/17 01:59:19;;;;;;;0.20;0.20;;;;;;;3.84;71.86;98638.91;5049133;28;20037;-78
2023/01/17 02:01:46;;;;;;;0.20;0.20;;;;;;;3.79;71.46;98638.16;5050126;28;20025;-77
2023/01/17 02:04:13;;;;;;;0.10;0.10;;;;;;;3.75;71.58;98639.16;5046410;28;20680;-76
2023/01/17 02:06:48;;;;;;;0.10;0.10;;;;;;;3.74;71.90;98642.69;5044471;28;20029;-77
2023/01/17 02:09:16;;;;;;;0.10;0.10;;;;;;;3.69;71.73;98641.97;5044049;28;20037;-78
2023/01/17 02:11:44;;;;;;;0.10;0.10;;;;;;;3.65;71.31;98641.19;5047739;28;20036;-78
2023/01/17 02:14:15;;;;;;;0.20;0.20;;;;;;;3.65;71.81;98641.19;5053040;28;20037;-77
2023/01/17 02:17:06;;;;;;;0.10;0.10;;;;;;;3.70;71.32;98651.50;5043678;28;20032;-77
2023/01/17 02:19:59;;;;;;;0.10;0.10;;;;;;;3.68;71.72;98655.94;5046663;28;20219;-78
2023/01/17 02:23:05;;;;;;;0.20;0.20;;;;;;;3.72;72.05;98660.19;5047540;28;20041;-77
2023/01/17 02:29:01;;;;;;;0.13;0.13;;;;;;;3.70;71.85;98668.09;5078673;28;20354;-77
2023/01/17 02:31:53;;;;;;;0.10;0.10;;;;;;;3.63;72.08;98677.00;5080312;28;20039;-79
2023/01/17 02:34:31;;;;;;;0.10;0.10;;;;;;;3.59;72.14;98674.50;5083423;28;20028;-78
2023/01/17 02:39:55;;;;;;;0.10;0.10;;;;;;;3.53;72.33;98678.16;5107688;27;20397;-78
2023/01/17 02:42:26;;;;;;;0.13;0.13;;;;;;;3.47;72.12;98680.94;5109104;28;20043;-78
2023/01/17 02:44:55;;;;;;;2.92;2.75;;;;;;;3.47;72.10;98686.19;5102882;28;20069;-78
2023/01/17 02:47:24;;;;;;;0.20;0.20;;;;;;;3.49;72.23;98680.00;5102625;28;20036;-78
2023/01/17 02:49:54;;;;;;;0.10;0.10;;;;;;;3.48;72.09;98688.75;5105040;28;20371;-77
2023/01/17 02:52:36;;;;;;;0.13;0.13;;;;;;;3.48;72.13;98693.97;5110474;28;20425;-78
2023/01/17 02:55:42;;;;;;;0.20;0.20;;;;;;;3.52;72.35;98690.38;5102932;28;20426;-77
2023/01/17 03:03:40;;;;;;;0.10;0.10;;;;;;;3.57;72.67;98687.66;5059231;28;20419;-78
2023/01/17 03:06:31;;;;;;;0.20;0.20;;;;;;;3.60;72.17;98684.09;5046538;28;20041;-77
2023/01/17 03:08:57;;;;;;;0.20;0.20;;;;;;;3.53;71.84;98681.63;5046207;28;20033;-77
2023/01/17 03:11:23;;;;;;;0.10;0.10;;;;;;;3.62;72.22;98684.91;5046597;28;20393;-78
2023/01/17 03:13:55;;;;;;;0.20;0.20;;;;;;;3.67;71.48;98685.66;5045827;28;20116;-77
2023/01/17 03:16:22;;;;;;;0.20;0.20;;;;;;;3.65;70.45;98695.28;5047054;28;20091;-77
2023/01/17 03:18:48;;;;;;;0.15;0.15;;;;;;;3.68;70.64;98690.00;5040130;28;20411;-76
2023/01/17 03:21:15;;;;;;;0.10;0.10;;;;;;;3.65;69.47;98685.69;5045926;28;20045;-76
2023/01/17 03:23:41;;;;;;;0.20;0.20;;;;;;;3.68;69.45;98680.34;5046395;28;20167;-77
2023/01/17 03:26:07;;;;;;;0.20;0.20;;;;;;;3.75;68.46;98688.94;5047701;28;20037;-77
2023/01/17 03:28:33;;;;;;;0.20;0.20;;;;;;;3.85;68.75;98685.16;5044118;28;20475;-77
2023/01/17 03:30:59;;;;;;;0.10;0.10;;;;;;;3.92;69.79;98690.22;5040812;28;20381;-77
2023/01/17 03:33:25;;;;;;;0.10;0.10;;;;;;;3.93;68.60;98689.34;5043304;28;20497;-77
2023/01/17 03:35:53;;;;;;;0.10;0.10;;;;;;;3.91;67.32;98691.13;5045333;28;20035;-77
2023/01/17 03:38:19;;;;;;;0.13;0.13;;;;;;;3.95;68.47;98692.75;5040012;28;20038;-76
2023/01/17 03:40:45;;;;;;;0.20;0.20;;;;;;;3.97;68.43;98693.56;5029786;28;20029;-77
2023/01/17 03:43:11;;;;;;;0.20;0.20;;;;;;;3.95;68.03;98700.59;5034178;28;20029;-77
2023/01/17 03:45:37;;;;;;;0.80;0.80;;;;;;;3.90;67.25;98721.72;5034988;28;20033;-77
2023/01/17 03:48:05;;;;;;;0.10;0.10;;;;;;;3.95;68.24;98722.44;5036700;28;20112;-77
2023/01/17 03:50:31;;;;;;;0.10;0.10;;;;;;;3.96;68.90;98716.31;5032798;28;20436;-77
2023/01/17 03:52:57;;;;;;;0.13;0.13;;;;;;;3.98;69.28;98718.88;5031483;28;20028;-77
2023/01/17 03:55:23;;;;;;;0.10;0.10;;;;;;;3.95;69.02;98716.31;5031711;28;20045;-77
2023/01/17 03:57:49;;;;;;;0.10;0.10;;;;;;;3.94;69.18;98712.88;5032377;28;20048;-76
2023/01/17 04:00:15;;;;;;;0.10;0.10;;;;;;;3.97;69.21;98715.38;5031881;28;20041;-77
2023/01/17 04:02:42;;;;;;;0.10;0.10;;;;;;;3.98;69.27;98713.63;5036619;28;20078;-77
2023/01/17 04:05:08;;;;;;;0.20;0.20;;;;;;;3.96;69.64;98718.06;5034796;28;20111;-77
2023/01/17 04:07:34;;;;;;;0.17;0.17;;;;;;;3.91;69.07;98722.56;5035925;28;20029;-78
2023/01/17 04:10:00;;;;;;;0.13;0.13;;;;;;;3.85;69.04;98719.22;5032031;28;20029;-77
2023/01/17 04:12:26;;;;;;;0.20;0.20;;;;;;;3.81;68.95;98719.31;5030483;28;20026;-77
2023/01/17 04:14:52;;;;;;;0.10;0.10;;;;;;;3.76;68.74;98721.22;5017755;28;20494;-77
2023/01/17 04:17:19;;;;;;;0.10;0.10;;;;;;;3.72;68.87;98728.28;5018722;28;20064;-77
2023/01/17 04:19:46;;;;;;;0.20;0.20;;;;;;;3.69;68.61;98723.16;5019400;28;20095;-77
2023/01/17 04:22:12;;;;;;;0.10;0.10;;;;;;;3.67;69.38;98719.69;5020402;28;20034;-77
2023/01/17 04:24:39;;;;;;;0.20;0.20;;;;;;;3.66;69.24;98723.22;5021412;28;20482;-77
2023/01/17 04:27:05;;;;;;;0.10;0.10;;;;;;;3.64;69.17;98731.09;5022163;28;20057;-77
2023/01/17 04:29:31;;;;;;;0.10;0.10;;;;;;;3.66;69.21;98726.66;5016327;28;20037;-77
2023/01/17 04:31:57;;;;;;;0.10;0.10;;;;;;;3.67;69.95;98724.94;5022540;28;20101;-78
2023/01/17 04:34:23;;;;;;;0.10;0.10;;;;;;;3.68;69.92;98721.41;5018990;28;20034;-78
2023/01/17 04:36:49;;;;;;;0.10;0.10;;;;;;;3.70;70.07;98722.22;5019876;28;20018;-77
2023/01/17 04:39:15;;;;;;;0.10;0.10;;;;;;;3.72;70.18;98725.66;5014829;28;20378;-77
2023/01/17 04:41:42;;;;;;;0.10;0.10;;;;;;;3.73;70.62;98720.38;5015530;28;20014;-77
2023/01/17 04:44:08;;;;;;;0.10;0.10;;;;;;;3.75;70.48;98722.09;5016199;28;20397;-77
2023/01/17 04:46:34;;;;;;;0.15;0.15;;;;;;;3.79;70.80;98722.00;5020678;28;20516;-76
2023/01/17 04:49:00;;;;;;;0.13;0.13;;;;;;;3.78;70.26;98717.66;5018774;28;20054;-77
2023/01/17 04:51:26;;;;;;;0.10;0.10;;;;;;;3.77;70.22;98715.06;5016510;28;20025;-77
2023/01/17 04:53:52;;;;;;;0.10;0.10;;;;;;;3.75;70.57;98725.59;5029081;28;20032;-77
2023/01/17 04:56:19;;;;;;;0.20;0.20;;;;;;;3.70;70.67;98725.72;5016797;28;20099;-77
2023/01/17 04:58:45;;;;;;;0.10;0.10;;;;;;;3.65;70.44;98722.38;5018096;28;20556;-77
2023/01/17 05:01:11;;;;;;;0.10;0.10;;;;;;;3.62;70.25;98721.56;5020662;28;20030;-77
2023/01/17 05:03:37;;;;;;;0.10;0.10;;;;;;;3.55;70.49;98719.13;5022924;28;20077;-77
2023/01/17 05:06:03;;;;;;;0.10;0.10;;;;;;;3.54;70.21;98725.25;5018909;28;20100;-77
2023/01/17 05:08:29;;;;;;;0.13;0.13;;;;;;;3.52;70.15;98732.25;5018769;28;20029;-77
2023/01/17 05:10:55;;;;;;;0.20;0.20;;;;;;;3.49;70.17;98736.72;5020258;28;20370;-77
2023/01/17 05:13:21;;;;;;;0.20;0.20;;;;;;;3.46;70.15;98740.28;5019644;28;20505;-77
2023/01/17 05:15:47;;;;;;;0.10;0.10;;;;;;;3.42;70.25;98743.88;5020146;28;20398;-77
2023/01/17 05:18:16;;;;;;;0.20;0.20;;;;;;;3.42;70.33;98746.50;5017002;28;20048;-77
2023/01/17 05:20:42;;;;;;;0.10;0.10;;;;;;;3.38;70.27;98742.25;5021646;28;20501;-77
2023/01/17 05:23:09;;;;;;;0.20;0.20;;;;;;;3.37;70.04;98748.38;5016621;28;20022;-77
2023/01/17 05:25:35;;;;;;;0.20;0.20;;;;;;;3.35;70.16;98753.66;5020243;28;20339;-77
2023/01/17 05:28:02;;;;;;;0.10;0.10;;;;;;;3.31;70.31;98761.59;5014795;28;20034;-76
2023/01/17 05:30:31;;;;;;;0.20;0.20;;;;;;;3.28;69.72;98766.91;5018751;28;20037;-77
2023/01/17 05:32:58;;;;;;;0.10;0.10;;;;;;;3.20;70.16;98762.72;5017875;28;20041;-77
2023/01/17 05:35:28;;;;;;;0.20;0.20;;;;;;;3.20;70.10;98765.34;5021143;28;20060;-77
2023/01/17 05:37:55;;;;;;;0.10;0.10;;;;;;;3.12;69.42;98766.41;5021178;28;20483;-77
2023/01/17 05:40:25;;;;;;;0.10;0.10;;;;;;;3.14;70.12;98778.56;5020128;28;20156;-77
2023/01/17 05:42:54;;;;;;;0.13;0.13;;;;;;;3.10;69.83;98771.66;5022632;28;20026;-78
2023/01/17 05:45:22;;;;;;;0.20;0.20;;;;;;;3.08;69.65;98768.25;5017698;28;20087;-77
2023/01/17 05:47:50;;;;;;;0.10;0.10;;;;;;;3.09;69.60;98767.34;5018322;28;20367;-77
2023/01/17 05:50:19;;;;;;;0.20;0.20;;;;;;;3.07;69.58;98771.75;5013344;28;20042;-77
2023/01/17 05:52:52;;;;;;;0.10;0.10;;;;;;;3.07;69.79;98774.38;5018042;28;20034;-78
2023/01/17 05:55:20;;;;;;;0.20;0.20;;;;;;;3.06;69.84;98770.03;5014358;28;20028;-77
2023/01/17 05:57:46;;;;;;;0.82;0.82;;;;;;;3.03;69.16;98772.72;5020067;28;20029;-78
2023/01/17 06:00:13;;;;;;;0.20;0.20;;;;;;;3.05;69.09;98773.53;5016458;28;20133;-77
2023/01/17 06:02:39;;;;;;;0.15;0.15;;;;;;;3.07;69.66;98771.75;5017864;28;20041;-77
2023/01/17 06:05:06;;;;;;;0.20;0.20;;;;;;;3.05;69.08;98769.19;5015647;28;20036;-77
2023/01/17 06:07:32;;;;;;;0.90;0.90;;;;;;;3.06;69.07;98777.88;5022988;28;20037;-77
2023/01/17 06:09:59;;;;;;;0.10;0.10;;;;;;;3.07;69.20;98779.59;5013555;28;20041;-77
2023/01/17 06:12:25;;;;;;;0.17;0.17;;;;;;;3.05;68.42;98784.00;5023013;28;20034;-76
2023/01/17 06:14:51;;;;;;;0.13;0.13;;;;;;;3.06;68.78;98785.72;5024279;28;20041;-76
2023/01/17 06:17:17;;;;;;;0.10;0.10;;;;;;;3.07;69.01;98795.28;5026258;28;20521;-76
2023/01/17 06:19:44;;;;;;;0.20;0.20;;;;;;;3.03;68.82;98791.88;5025729;28;20040;-76
2023/01/17 06:22:10;;;;;;;0.10;0.10;;;;;;;3.05;69.12;98799.69;5024330;28;20026;-76
2023/01/17 06:24:36;;;;;;;0.20;0.20;;;;;;;3.02;68.86;98794.53;5027757;28;20485;-76
2023/01/17 06:27:02;;;;;;;0.20;0.20;;;;;;;3.01;69.04;98798.06;5027916;28;20441;-76
2023/01/17 06:29:28;;;;;;;0.10;0.10;;;;;;;2.97;68.27;98799.03;5031673;28;20038;-76
2023/01/17 06:31:54;;;;;;;0.10;0.10;;;;;;;2.96;68.35;98808.59;5030720;28;20091;-76
2023/01/17 06:34:20;;;;;;;0.10;0.10;;;;;;;2.98;67.49;98801.59;5035290;28;20041;-76
2023/01/17 06:36:46;;;;;;;0.20;0.20;;;;;;;2.99;68.22;98802.44;5027775;28;20029;-78
2023/01/17 06:39:13;;;;;;;0.10;0.10;;;;;;;2.98;67.44;98803.34;5031131;28;20026;-77
2023/01/17 06:41:39;;;;;;;0.10;0.10;;;;;;;3.01;67.98;98798.06;5029846;28;20032;-77
2023/01/17 06:44:06;;;;;;;0.20;0.20;;;;;;;3.01;67.83;98811.13;5029836;28;20045;-77
2023/01/17 06:46:32;;;;;;;0.20;0.20;;;;;;;3.01;67.99;98804.13;5029376;28;20037;-77
2023/01/17 06:48:58;;;;;;;0.20;0.20;;;;;;;2.98;67.14;98798.97;5029513;28;20053;-78
2023/01/17 06:51:24;;;;;;;0.13;0.13;;;;;;;2.94;66.98;98804.31;5029467;28;20032;-77
2023/01/17 06:53:50;;;;;;;0.10;0.10;;;;;;;2.95;67.25;98799.03;5032281;28;20057;-77
2023/01/17 06:56:16;;;;;;;0.20;0.20;;;;;;;2.91;67.01;98798.22;5022922;28;20029;-77
2023/01/17 06:58:42;;;;;;;0.10;0.10;;;;;;;2.88;66.61;98803.53;5031431;28;20041;-77
2023/01/17 07:01:10;;;;;;;0.30;0.30;;;;;;;2.90;66.78;98807.00;5023736;28;20072;-77
2023/01/17 07:03:37;;;;;;;0.10;0.10;;;;;;;2.87;66.81;98807.06;5032511;28;20037;-77
2023/01/17 07:06:04;;;;;;;0.20;0.20;;;;;;;2.88;66.72;98805.31;5029936;28;20037;-77
2023/01/17 07:08:31;;;;;;;0.13;0.13;;;;;;;2.83;66.70;98805.41;5028258;28;20065;-77
2023/01/17 07:10:59;;;;;;;0.10;0.10;;;;;;;2.82;66.84;98803.69;5030410;28;20026;-77
2023/01/17 07:13:26;;;;;;;0.20;0.20;;;;;;;2.82;65.85;98808.91;5024678;28;20072;-77
2023/01/17 07:15:53;;;;;;;0.20;0.20;;;;;;;2.81;65.94;98801.94;5028140;28;20022;-77
2023/01/17 07:18:22;;;;;;;0.10;0.10;;;;;;;2.84;66.41;98796.66;5023691;28;20033;-77
2023/01/17 07:20:49;;;;;;;0.10;0.10;;;;;;;2.85;67.48;98794.91;5029961;28;20405;-77
2023/01/17 07:23:16;;;;;;;0.20;0.20;;;;;;;2.85;66.03;98800.97;5025559;28;20120;-76
2023/01/17 07:25:42;;;;;;;0.20;0.20;;;;;;;2.83;66.40;98797.56;5025288;28;20038;-77
2023/01/17 07:28:08;;;;;;;0.20;0.20;;;;;;;2.80;65.47;98802.84;5030513;28;20052;-77
2023/01/17 07:30:35;;;;;;;0.20;0.20;;;;;;;2.80;65.79;98810.69;5021299;28;20033;-78
2023/01/17 07:33:01;;;;;;;0.20;0.20;;;;;;;2.77;66.60;98805.53;5022765;28;20104;-78
2023/01/17 07:35:27;;;;;;;0.10;0.10;;;;;;;2.73;65.92;98804.72;5023969;28;20041;-77
2023/01/17 07:37:54;;;;;;;0.20;0.20;;;;;;;2.73;65.71;98814.34;5029292;28;20040;-78
2023/01/17 07:40:21;;;;;;;0.13;0.13;;;;;;;2.72;65.58;98805.63;5021684;28;20036;-77
2023/01/17 07:42:47;;;;;;;0.20;0.20;;;;;;;2.71;65.88;98810.88;5021248;28;21623;-77
2023/01/17 07:45:15;;;;;;;0.20;0.20;;;;;;;2.67;66.07;98811.84;5023019;28;20057;-77
2023/01/17 07:47:43;;;;;;;0.15;0.15;;;;;;;2.69;66.48;98818.78;5027749;28;20385;-77
2023/01/17 07:50:10;;;;;;;0.10;0.10;;;;;;;2.66;66.36;98821.44;5029051;28;20284;-78
2023/01/17 07:52:36;;;;;;;0.20;0.20;;;;;;;2.67;66.63;98827.53;5018807;28;20049;-77
2023/01/17 07:55:02;;;;;;;0.20;0.20;;;;;;;2.64;65.30;98830.22;5024909;28;20021;-77
2023/01/17 07:57:28;;;;;;;0.20;0.20;;;;;;;2.66;66.40;98833.66;5027512;28;20033;-77
2023/01/17 07:59:54;;;;;;;0.20;0.20;;;;;;;2.65;65.90;98829.31;5025948;28;20034;-78
2023/01/17 08:02:22;;;;;;;0.10;0.10;;;;;;;2.64;66.36;98827.59;5025681;28;20381;-78
2023/01/17 08:04:48;;;;;;;0.20;0.20;;;;;;;2.59;65.81;98828.56;5029009;28;20042;-77
2023/01/17 08:07:15;;;;;;;0.10;0.10;;;;;;;2.57;66.01;98825.09;5034496;28;20523;-77
2023/01/17 08:09:43;;;;;;;0.20;0.20;;;;;;;2.57;65.93;98825.09;5029002;28;20393;-77
2023/01/17 08:12:09;;;;;;;0.10;0.10;;;;;;;2.57;66.16;98829.47;5030793;28;20041;-77
2023/01/17 08:14:35;;;;;;;0.20;0.20;;;;;;;2.54;66.44;98825.19;5025726;28;20041;-76
2023/01/17 08:17:04;;;;;;;0.10;0.10;;;;;;;2.52;66.57;98837.41;5017863;28;20030;-77
2023/01/17 08:19:30;;;;;;;0.20;0.20;;;;;;;2.47;66.48;98828.78;5023316;28;20026;-75
2023/01/17 08:21:56;;;;;;;0.20;0.20;;;;;;;2.49;66.94;98836.59;5034646;28;20037;-78
2023/01/17 08:24:23;;;;;;;0.10;0.10;;;;;;;2.47;66.96;98833.13;5036245;28;20049;-77
2023/01/17 08:26:49;;;;;;;0.20;0.20;;;;;;;2.47;66.59;98841.88;5020739;28;20037;-77
2023/01/17 08:29:15;;;;;;;0.20;0.20;;;;;;;2.43;66.92;98828.00;5028995;28;20041;-78
2023/01/17 08:31:41;;;;;;;0.17;0.17;;;;;;;2.42;67.08;98825.41;5029114;28;20029;-77
2023/01/17 08:34:07;;;;;;;0.20;0.20;;;;;;;2.41;67.17;98826.31;5030687;28;20029;-78
2023/01/17 08:36:33;;;;;;;0.10;0.10;;;;;;;2.38;67.20;98828.94;5026035;28;20033;-79
2023/01/17 08:38:59;;;;;;;0.20;0.20;;;;;;;2.37;67.37;98833.34;5023878;28;20060;-78
2023/01/17 08:41:27;;;;;;;0.20;0.20;;;;;;;2.38;67.27;98834.19;5023991;28;22333;-79
2023/01/17 08:43:53;;;;;;;0.15;0.15;;;;;;;2.39;67.28;98835.91;5037065;28;20033;-79
2023/01/17 08:46:19;;;;;;;0.10;0.10;;;;;;;2.38;67.04;98832.44;5023936;28;20049;-78
2023/01/17 08:48:45;;;;;;;0.20;0.20;;;;;;;2.41;66.89;98841.97;5023960;28;20465;-78
2023/01/17 08:51:12;;;;;;;0.10;0.10;;;;;;;2.46;67.21;98842.75;5012959;28;20041;-77
2023/01/17 08:53:38;;;;;;;0.10;0.10;;;;;;;2.49;67.74;98844.44;5016954;28;20088;-78
2023/01/17 08:56:05;;;;;;;0.10;0.10;;;;;;;2.52;67.61;98844.41;5026656;28;20072;-79
2023/01/17 08:58:32;;;;;;;0.20;0.20;;;;;;;2.55;67.50;98850.41;5029109;28;20497;-77
2023/01/17 09:01:02;;;;;;;2.28;2.08;;;;;;;2.65;67.63;98852.84;5017390;28;20034;-77
2023/01/17 09:03:30;;;;;;;0.38;0.38;;;;;;;2.67;67.60;98845.84;5025261;28;20029;-77
2023/01/17 09:06:06;;;;;;;0.17;0.17;;;;;;;2.78;68.32;98849.09;5029915;28;20029;-78
2023/01/17 09:08:33;;;;;;;0.13;0.13;;;;;;;2.80;68.44;98859.53;5025394;28;21103;-77
2023/01/17 09:11:09;;;;;;;0.20;0.20;;;;;;;2.89;68.09;98857.59;5021769;28;20511;-78
2023/01/17 09:13:36;;;;;;;0.20;0.20;;;;;;;2.90;68.41;98856.69;5023057;28;20041;-78
2023/01/17 09:16:04;;;;;;;0.20;0.20;;;;;;;2.95;68.02;98860.97;5023736;28;20045;-80
2023/01/17 09:18:31;;;;;;;0.13;0.13;;;;;;;2.98;68.39;98861.78;5028690;28;20116;-77
2023/01/17 09:20:58;;;;;;;0.20;0.20;;;;;;;3.02;67.93;98866.03;5024934;28;20041;-78
2023/01/17 09:23:26;;;;;;;0.20;0.20;;;;;;;3.10;68.00;98865.88;5027534;28;20421;-78
2023/01/17 09:25:55;;;;;;;0.15;0.15;;;;;;;3.16;67.80;98863.13;5028475;28;20682;-78
2023/01/17 09:28:21;;;;;;;0.10;0.10;;;;;;;3.21;67.84;98863.88;5028724;28;20037;-79
2023/01/17 09:30:47;;;;;;;0.20;0.20;;;;;;;3.27;67.06;98868.13;5033098;28;20029;-79
2023/01/17 09:33:14;;;;;;;0.20;0.20;;;;;;;3.32;67.54;98862.78;5035631;28;20052;-78
2023/01/17 09:35:40;;;;;;;0.10;0.10;;;;;;;3.36;67.79;98867.06;5027168;28;20034;-78
2023/01/17 09:38:06;;;;;;;0.10;0.10;;;;;;;3.39;67.41;98861.78;5028379;28;20626;-78
2023/01/17 09:40:35;;;;;;;0.10;0.10;;;;;;;3.42;67.05;98872.16;5031814;28;20480;-79
2023/01/17 09:43:10;;;;;;;0.17;0.17;;;;;;;3.48;66.10;98872.03;5023480;28;20097;-78
2023/01/17 09:45:36;;;;;;;0.20;0.20;;;;;;;3.50;66.54;98872.84;5030611;28;20127;-78
2023/01/17 09:48:11;;;;;;;0.20;0.20;;;;;;;3.56;66.17;98879.69;5016242;28;20034;-78
2023/01/17 09:50:46;;;;;;;0.20;0.20;;;;;;;3.63;66.67;98880.44;5024151;28;20021;-78
2023/01/17 09:53:17;;;;;;;0.20;0.20;;;;;;;3.64;66.27;98882.13;5014746;28;20030;-78
2023/01/17 09:55:56;;;;;;;0.10;0.10;;;;;;;3.70;66.30;98887.22;5019341;28;20025;-78
2023/01/17 09:58:33;;;;;;;0.20;0.20;;;;;;;3.70;66.90;98890.72;5020599;28;20026;-79
2023/01/17 10:01:23;;;;;;;0.10;0.10;;;;;;;3.75;66.43;98885.38;5013963;28;20108;-79
2023/01/17 10:12:27;;;;;;;0.10;0.10;;;;;;;3.66;66.46;98903.91;5114281;27;1185696;-78
2023/01/17 10:15:09;;;;;;;0.20;0.20;;;;;;;3.67;66.72;98903.88;5112959;27;20296;-78
2023/01/17 10:20:48;;;;;;;0.20;0.20;;;;;;;3.72;66.29;98911.63;5095534;27;20540;-79
2023/01/17 10:26:20;;;;;;;0.20;0.20;;;;;;;3.75;67.16;98913.31;5061707;28;20403;-77
2023/01/17 10:28:50;;;;;;;0.20;0.20;;;;;;;3.78;67.79;98905.41;5043975;28;20116;-78
2023/01/17 10:33:55;;;;;;;0.10;0.10;;;;;;;3.80;66.48;98903.59;5054610;28;20430;-79
2023/01/17 10:36:25;;;;;;;0.10;0.10;;;;;;;3.81;66.70;98906.16;5045224;28;20037;-79
2023/01/17 10:38:55;;;;;;;0.10;0.10;;;;;;;3.85;67.32;98902.59;5036009;28;20029;-79
2023/01/17 10:41:27;;;;;;;0.20;0.20;;;;;;;3.91;65.98;98911.19;5046888;28;20098;-79
2023/01/17 10:46:40;;;;;;;0.20;0.20;;;;;;;4.11;66.43;98908.09;5061853;28;20416;-78
2023/01/17 10:49:17;;;;;;;0.20;0.20;;;;;;;4.19;66.09;98908.78;5061061;28;20483;-79
2023/01/17 10:52:23;;;;;;;0.20;0.20;;;;;;;4.27;66.60;98905.94;5065401;28;20040;-79
2023/01/17 10:55:29;;;;;;;0.20;0.20;;;;;;;4.29;66.40;98898.91;5058469;28;20036;-79
2023/01/17 10:57:57;;;;;;;0.20;0.20;;;;;;;4.20;66.15;98911.34;5055905;28;20033;-80
2023/01/17 11:03:00;;;;;;;0.10;0.10;;;;;;;4.24;66.20;98906.00;5065750;28;20404;-80
2023/01/17 11:05:29;;;;;;;0.10;0.10;;;;;;;4.26;65.52;98899.84;5053708;28;20041;-80
2023/01/17 11:08:01;;;;;;;0.20;0.20;;;;;;;4.25;65.34;98899.88;5047904;28;20485;-81
2023/01/17 11:10:49;;;;;;;0.20;0.20;;;;;;;4.29;65.97;98902.38;5049741;28;20025;-80
2023/01/17 11:13:28;;;;;;;0.10;0.10;;;;;;;4.29;66.34;98898.91;5052980;28;20029;-80
2023/01/17 11:15:59;;;;;;;0.20;0.20;;;;;;;4.23;66.71;98892.06;5052222;28;20025;-80
2023/01/17 11:18:30;;;;;;;0.10;0.10;;;;;;;4.21;65.98;98899.97;5051969;28;20182;-80
2023/01/17 11:21:20;;;;;;;0.90;0.90;;;;;;;4.30;65.96;98898.00;5051577;28;20032;-80
2023/01/17 11:23:50;;;;;;;0.20;0.20;;;;;;;4.30;66.64;98892.75;5050883;28;20040;-79
2023/01/17 11:26:28;;;;;;;0.10;0.10;;;;;;;4.38;67.03;98898.66;5053475;28;20119;-81
2023/01/17 11:29:27;;;;;;;0.20;0.20;;;;;;;4.49;66.57;98888.75;5049201;28;20030;-81
2023/01/17 11:31:55;;;;;;;0.15;0.15;;;;;;;4.52;66.43;98893.94;5053994;28;20100;-80
2023/01/17 11:34:28;;;;;;;0.20;0.20;;;;;;;4.68;66.32;98888.25;5052985;28;20409;-80
2023/01/17 11:37:25;;;;;;;0.20;0.20;;;;;;;4.88;66.32;98886.84;5052625;28;20049;-81
2023/01/17 11:40:04;;;;;;;0.10;0.10;;;;;;;4.95;66.70;98885.78;5048144;28;20186;-80
2023/01/17 11:42:33;;;;;;;0.20;0.20;;;;;;;5.05;65.72;98887.22;5051653;28;20040;-80
2023/01/17 11:45:24;;;;;;;0.20;0.20;;;;;;;5.22;64.19;98888.50;5052896;28;20033;-80
2023/01/17 11:50:53;;;;;;;0.10;0.10;;;;;;;5.37;64.58;98879.28;5109595;27;1168473;-80
2023/01/17 11:53:37;;;;;;;0.20;0.20;;;;;;;5.43;63.35;98881.75;5108595;28;20297;-81
2023/01/17 11:58:42;;;;;;;0.10;0.10;;;;;;;5.54;64.54;98874.38;5100937;27;20403;-81
2023/01/17 12:04:17;;;;;;;0.10;0.10;;;;;;;5.80;62.57;98868.31;5093644;27;20408;-79
2023/01/17 12:07:23;;;;;;;0.10;0.10;;;;;;;5.93;63.47;98870.53;5072373;28;20046;-84
2023/01/17 12:10:19;;;;;;;0.25;0.25;;;;;;;6.03;64.11;98858.84;5060374;28;20401;-81
2023/01/17 12:15:43;;;;;;;0.20;0.20;;;;;;;6.16;62.31;98856.66;5101771;27;20374;-81
2023/01/17 12:18:32;;;;;;;0.10;0.10;;;;;;;6.29;61.84;98849.19;5089967;28;20087;-81
2023/01/17 12:21:15;;;;;;;0.20;0.20;;;;;;;6.36;61.21;98848.09;5087441;28;20035;-81
2023/01/17 12:24:12;;;;;;;0.20;0.20;;;;;;;6.49;61.82;98853.75;5089765;28;20020;-81
2023/01/17 12:26:48;;;;;;;0.20;0.20;;;;;;;6.48;57.17;98852.91;5088692;28;20032;-81
2023/01/17 12:29:44;;;;;;;0.10;0.10;;;;;;;6.59;56.98;98849.91;5087913;28;20112;-84
2023/01/17 12:35:07;;;;;;;0.10;0.10;;;;;;;6.69;56.36;98844.31;5066515;28;20906;-81
2023/01/17 12:37:42;;;;;;;0.10;0.10;;;;;;;6.67;56.58;98847.00;5044048;28;20087;-81
2023/01/17 12:40:31;;;;;;;0.10;0.10;;;;;;;6.71;54.36;98837.22;5045461;28;20492;-81
2023/01/17 12:43:06;;;;;;;0.20;0.20;;;;;;;6.68;54.75;98838.19;5049373;28;20021;-82
2023/01/17 12:45:43;;;;;;;0.10;0.10;;;;;;;6.75;53.89;98839.69;5055248;28;20037;-81
2023/01/17 12:48:14;;;;;;;0.10;0.10;;;;;;;6.74;55.01;98843.25;5049253;28;20040;-81
2023/01/17 12:50:50;;;;;;;0.10;0.10;;;;;;;6.75;52.16;98839.69;5041039;28;20041;-82
2023/01/17 12:56:26;;;;;;;0.20;0.20;;;;;;;6.81;54.53;98838.59;5059452;28;20388;-81
2023/01/17 12:59:02;;;;;;;0.13;0.13;;;;;;;6.75;49.65;98842.31;5049567;28;20036;-82
2023/01/17 13:01:38;;;;;;;0.10;0.10;;;;;;;6.72;51.59;98845.06;5051022;28;20121;-81
2023/01/17 13:04:44;;;;;;;0.10;0.10;;;;;;;6.77;51.49;98842.25;5051622;28;20040;-80
2023/01/17 13:07:21;;;;;;;0.20;0.20;;;;;;;6.74;51.75;98837.09;5050617;28;20123;-81
2023/01/17 13:09:54;;;;;;;0.10;0.10;;;;;;;6.73;51.45;98838.00;5045621;28;20500;-82
2023/01/17 13:12:23;;;;;;;0.10;0.10;;;;;;;6.74;52.40;98832.72;5042090;28;20422;-81
2023/01/17 13:14:49;;;;;;;0.47;0.47;;;;;;;6.68;51.41;98837.31;5048826;28;20044;-82
2023/01/17 13:20:07;;;;;;;0.20;0.20;;;;;;;6.72;52.07;98838.94;5119548;27;1171228;-81
2023/01/17 13:22:36;;;;;;;0.17;0.17;;;;;;;6.72;50.20;98838.94;5138397;27;20741;-81
2023/01/17 13:25:35;;;;;;;0.10;0.10;;;;;;;6.83;51.99;98833.25;5129700;27;20030;-81
2023/01/17 13:28:16;;;;;;;0.10;0.10;;;;;;;6.82;51.66;98840.31;5123712;28;20450;-81
2023/01/17 13:31:22;;;;;;;0.10;0.10;;;;;;;6.97;52.46;98841.53;5130759;28;20457;-81
2023/01/17 13:39:28;;;;;;;0.10;0.10;;;;;;;7.13;52.17;98845.28;5115387;27;20377;-80
2023/01/17 13:42:33;;;;;;;0.10;0.10;;;;;;;7.16;51.40;98846.94;5098235;28;20081;-81
2023/01/17 13:45:06;;;;;;;0.20;0.20;;;;;;;7.14;51.48;98851.44;5097786;28;20099;-82
2023/01/17 13:47:39;;;;;;;0.10;0.10;;;;;;;7.15;50.92;98847.84;5086123;28;20020;-82
2023/01/17 13:50:25;;;;;;;0.20;0.20;;;;;;;7.19;51.66;98853.88;5082980;28;20048;-81
2023/01/17 13:52:56;;;;;;;2.05;0.75;;;;;;;7.18;49.24;98857.41;5083816;28;20033;-81
2023/01/17 13:55:44;;;;;;;0.10;0.10;;;;;;;7.28;48.94;98856.16;5087250;28;20036;-81
2023/01/17 13:58:53;;;;;;;0.10;0.10;;;;;;;7.31;49.82;98863.09;5080178;28;20027;-82
2023/01/17 14:12:00;;;;;;;0.15;0.15;;;;;;;7.22;49.95;98864.31;5127051;27;20415;-83
2023/01/17 14:20:17;;;;;;;0.10;0.10;;;;;;;7.14;49.16;98864.59;5112824;27;20359;-81
2023/01/17 14:22:52;;;;;;;0.10;0.10;;;;;;;7.11;50.06;98864.69;5082223;28;20520;-80
2023/01/17 14:25:23;;;;;;;0.10;0.10;;;;;;;7.04;48.85;98869.34;5089317;28;20037;-81
2023/01/17 14:27:54;;;;;;;0.10;0.10;;;;;;;7.01;48.88;98864.19;5078745;28;20020;-81
2023/01/17 14:30:35;;;;;;;0.10;0.10;;;;;;;7.01;49.27;98872.06;5080350;28;20013;-80
2023/01/17 14:35:50;;;;;;;0.10;0.10;;;;;;;6.97;49.41;98870.50;5137931;27;20445;-84
2023/01/17 14:38:27;;;;;;;0.10;0.10;;;;;;;6.99;50.58;98870.41;5117436;27;20085;-84